Stoy, Illinois
Current Conditions -  °F | °C
As of 1:35 PM on Thursday 23 Oct 2014 (Local Time) from KRSV Reporting Station
Clear Clear  
Wind Chill: 62°   Ceiling: Unl
Heat Index: 62°   Visibility: 10mi
Dew Point: 44°   Wind: 0mph
Humidity: 51%   Direction: NA
Pressure: 30.19"   Gusts: NA
Location:  39°N, 87.83°W
Report Text: KRSV 231835Z AUTO 00000KT 10SM CLR 17/07 A3019 RMK AO2 T01690067
Loading
Personal Weather Stations






























Interactive Weather Map
Tropical Storm Tracking
New forecast layout! Learn more

10-Day Weather Forecast

Advertisements
Track Severe Weather on mobile